Time;durP1;ratioP1;P1;durP2;ratioP2;P2;SDS_P1;SDS_P2;PMS_P1;PMS_P2;Temp;Humidity;BMP_temperature;BMP_pressure;BME280_temperature;BME280_humidity;BME280_pressure;Samples;Min_cycle;Max_cycle;Signal;HPM_P1;HPM_P2
2023/10/26 00:01:44;;;;;;;0.20;0.20;;;;;;;17.61;66.85;99626.22;5066333;28;20037;-74
2023/10/26 00:04:40;;;;;;;0.20;0.20;;;;;;;17.75;66.47;99632.50;5056178;28;20420;-74
2023/10/26 00:07:06;;;;;;;0.20;0.20;;;;;;;16.94;69.05;99641.22;5032537;28;20046;-75
2023/10/26 00:09:31;;;;;;;0.20;0.20;;;;;;;17.20;68.91;99643.22;5050297;28;20358;-75
2023/10/26 00:11:57;;;;;;;0.30;0.30;;;;;;;18.11;65.18;99641.53;5020000;28;20049;-74
2023/10/26 00:14:22;;;;;;;0.20;0.20;;;;;;;17.80;65.89;99644.06;5014100;28;20037;-75
2023/10/26 00:16:47;;;;;;;0.20;0.20;;;;;;;17.89;66.29;99652.28;5039586;28;20075;-75
2023/10/26 00:19:13;;;;;;;0.30;0.30;;;;;;;18.47;63.56;99644.31;5072270;28;20052;-75
2023/10/26 00:21:39;;;;;;;0.10;0.10;;;;;;;17.70;65.96;99646.97;5071882;28;20040;-74
2023/10/26 00:24:05;;;;;;;0.30;0.30;;;;;;;17.76;66.04;99644.94;5071995;28;20496;-75
2023/10/26 00:26:30;;;;;;;0.20;0.20;;;;;;;18.02;64.68;99654.22;5071714;28;20063;-75
2023/10/26 00:28:55;;;;;;;0.10;0.10;;;;;;;18.07;64.38;99651.38;5072124;28;20485;-75
2023/10/26 00:31:21;;;;;;;0.20;0.20;;;;;;;17.38;67.35;99663.28;5071849;28;20028;-75
2023/10/26 00:33:46;;;;;;;0.20;0.20;;;;;;;17.95;65.58;99659.25;5071977;28;20029;-74
2023/10/26 00:36:12;;;;;;;0.20;0.20;;;;;;;17.98;64.96;99672.25;5071529;28;20032;-74
2023/10/26 00:38:37;;;;;;;0.17;0.17;;;;;;;17.36;66.99;99674.44;5071469;28;20036;-74
2023/10/26 00:41:02;;;;;;;0.20;0.20;;;;;;;17.79;64.89;99675.03;5071967;28;20107;-74
2023/10/26 00:43:28;;;;;;;0.20;0.20;;;;;;;17.89;65.94;99665.88;5071495;28;20029;-73
2023/10/26 00:45:54;;;;;;;0.10;0.10;;;;;;;17.91;65.75;99666.38;5072045;28;20786;-74
2023/10/26 00:48:20;;;;;;;0.15;0.15;;;;;;;17.58;67.46;99662.94;5053526;28;20106;-74
2023/10/26 00:50:47;;;;;;;0.20;0.20;;;;;;;17.35;67.36;99667.41;5071390;28;20580;-74
2023/10/26 00:53:15;;;;;;;0.20;0.20;;;;;;;17.48;66.72;99668.53;5071354;28;20183;-74
2023/10/26 00:55:43;;;;;;;0.10;0.10;;;;;;;16.87;69.02;99678.78;5071142;28;20083;-75
2023/10/26 00:58:10;;;;;;;0.10;0.10;;;;;;;17.28;67.86;99685.16;5079750;28;20050;-74
2023/10/26 01:00:37;;;;;;;0.20;0.20;;;;;;;16.94;69.86;99681.94;5071373;28;20120;-74
2023/10/26 01:03:04;;;;;;;0.20;0.20;;;;;;;17.45;67.88;99680.00;5070847;28;20110;-74
2023/10/26 01:05:29;;;;;;;0.20;0.20;;;;;;;17.92;65.44;99678.88;5070230;28;20025;-75
2023/10/26 01:07:54;;;;;;;0.20;0.20;;;;;;;17.85;65.42;99686.63;5070460;28;20039;-74
2023/10/26 01:10:20;;;;;;;0.20;0.20;;;;;;;17.92;65.31;99676.97;5070629;28;20031;-73
2023/10/26 01:12:46;;;;;;;0.15;0.15;;;;;;;17.00;68.36;99673.41;5070712;28;20066;-74
2023/10/26 01:15:11;;;;;;;0.10;0.10;;;;;;;18.05;64.43;99676.16;5070469;28;20230;-74
2023/10/26 01:17:36;;;;;;;0.22;0.22;;;;;;;17.82;66.16;99676.38;5070353;28;20756;-75
2023/10/26 01:20:04;;;;;;;0.25;0.25;;;;;;;18.19;63.95;99676.97;5070095;28;20075;-74
2023/10/26 01:22:30;;;;;;;0.10;0.10;;;;;;;18.11;63.86;99679.59;5070405;28;20020;-74
2023/10/26 01:24:56;;;;;;;0.30;0.30;;;;;;;17.76;65.49;99683.81;5070113;28;20095;-74
2023/10/26 01:27:21;;;;;;;0.10;0.10;;;;;;;18.07;64.19;99684.81;5070445;28;20036;-74
2023/10/26 01:29:47;;;;;;;0.20;0.20;;;;;;;18.07;63.92;99689.44;5070285;28;20044;-76
2023/10/26 01:32:12;;;;;;;0.30;0.30;;;;;;;18.01;64.32;99690.66;5070312;28;20033;-74
2023/10/26 01:34:39;;;;;;;0.20;0.20;;;;;;;18.44;62.32;99689.25;5070187;28;20036;-75
2023/10/26 01:37:05;;;;;;;0.20;0.20;;;;;;;17.99;64.04;99693.69;5070656;28;20024;-74
2023/10/26 01:39:31;;;;;;;0.10;0.10;;;;;;;17.77;64.44;99693.56;5070027;28;20250;-74
2023/10/26 01:41:57;;;;;;;0.10;0.10;;;;;;;17.65;64.98;99695.16;5070111;28;20044;-75
2023/10/26 01:44:22;;;;;;;0.15;0.15;;;;;;;17.78;64.60;99706.06;5071122;28;20051;-75
2023/10/26 01:46:47;;;;;;;0.10;0.10;;;;;;;17.63;66.61;99700.09;5071321;28;20354;-74
2023/10/26 01:49:13;;;;;;;0.10;0.10;;;;;;;17.33;66.55;99696.78;5071915;28;20028;-74
2023/10/26 01:51:38;;;;;;;0.20;0.20;;;;;;;16.66;68.75;99689.94;5071346;28;20040;-74
2023/10/26 01:54:04;;;;;;;0.28;0.28;;;;;;;17.49;66.81;99700.06;5083769;28;20045;-74
2023/10/26 01:56:30;;;;;;;0.22;0.22;;;;;;;17.31;67.25;99696.25;5076014;28;20040;-75
2023/10/26 01:58:56;;;;;;;0.10;0.10;;;;;;;17.42;66.99;99692.25;5071460;28;20035;-74
2023/10/26 02:01:22;;;;;;;0.30;0.30;;;;;;;17.17;68.20;99698.13;5070348;28;20017;-74
2023/10/26 02:03:47;;;;;;;0.10;0.10;;;;;;;17.79;66.01;99693.28;5070744;28;20079;-75
2023/10/26 02:06:14;;;;;;;0.20;0.20;;;;;;;17.36;66.20;99692.63;5070851;28;20033;-74
2023/10/26 02:08:40;;;;;;;0.20;0.20;;;;;;;16.98;69.01;99693.81;5071485;28;20040;-73
2023/10/26 02:11:06;;;;;;;0.20;0.20;;;;;;;16.69;70.04;99694.75;5052773;28;20028;-74
2023/10/26 02:13:32;;;;;;;0.20;0.20;;;;;;;17.70;65.65;99706.75;5071139;28;20362;-74
2023/10/26 02:15:59;;;;;;;0.25;0.25;;;;;;;17.85;65.25;99702.91;5072008;28;20028;-74
2023/10/26 02:18:24;;;;;;;0.20;0.20;;;;;;;18.56;62.67;99716.75;5071273;28;20108;-73
2023/10/26 02:20:50;;;;;;;0.30;0.30;;;;;;;18.73;62.28;99713.41;5053354;28;20048;-74
2023/10/26 02:23:15;;;;;;;0.20;0.20;;;;;;;18.39;63.46;99719.25;5071451;28;20041;-73
2023/10/26 02:25:40;;;;;;;0.20;0.20;;;;;;;18.31;62.85;99725.41;5071484;28;20028;-76
2023/10/26 02:28:06;;;;;;;0.10;0.10;;;;;;;17.58;65.18;99730.88;5071722;28;20027;-74
2023/10/26 02:30:32;;;;;;;0.10;0.10;;;;;;;17.96;64.24;99732.34;5071190;28;20030;-73
2023/10/26 02:32:57;;;;;;;0.20;0.20;;;;;;;17.94;64.67;99729.13;5071528;28;20040;-74
2023/10/26 02:35:22;;;;;;;0.22;0.22;;;;;;;17.91;64.63;99729.72;5071406;28;20120;-75
2023/10/26 02:37:48;;;;;;;0.30;0.30;;;;;;;17.08;67.90;99726.25;5074784;28;20059;-75
2023/10/26 02:40:13;;;;;;;0.20;0.20;;;;;;;17.18;67.18;99728.78;5075290;28;20017;-74
2023/10/26 02:42:38;;;;;;;0.20;0.20;;;;;;;17.87;65.07;99728.69;5074033;28;20477;-74
2023/10/26 02:45:08;;;;;;;0.13;0.13;;;;;;;17.52;65.58;99732.88;5073557;28;20110;-75
2023/10/26 02:47:34;;;;;;;0.30;0.30;;;;;;;17.32;67.07;99735.06;5073318;28;20044;-73
2023/10/26 02:49:59;;;;;;;0.20;0.20;;;;;;;17.01;68.87;99736.63;5083398;28;20754;-74
2023/10/26 02:52:25;;;;;;;0.20;0.20;;;;;;;17.33;67.76;99740.22;5081711;28;20033;-75
2023/10/26 02:54:50;;;;;;;0.20;0.20;;;;;;;18.55;62.35;99741.53;5074147;28;20041;-75
2023/10/26 02:57:15;;;;;;;0.13;0.13;;;;;;;18.50;61.84;99737.00;5073403;28;20091;-74
2023/10/26 02:59:41;;;;;;;0.38;0.38;;;;;;;18.30;62.96;99740.09;5073260;28;20037;-74
2023/10/26 03:02:07;;;;;;;0.17;0.17;;;;;;;18.43;62.31;99733.91;5073478;28;20028;-74
2023/10/26 03:04:35;;;;;;;0.20;0.20;;;;;;;17.69;64.52;99729.56;5073528;28;20515;-74
2023/10/26 03:07:01;;;;;;;0.22;0.22;;;;;;;17.14;67.70;99725.84;5073692;28;20036;-75
2023/10/26 03:09:28;;;;;;;0.10;0.10;;;;;;;17.95;65.31;99724.47;5073610;28;20029;-75
2023/10/26 03:11:54;;;;;;;0.20;0.20;;;;;;;18.30;63.70;99705.56;5072858;28;20537;-74
2023/10/26 03:14:19;;;;;;;0.20;0.20;;;;;;;18.25;63.49;99708.41;5073457;28;20040;-74
2023/10/26 03:16:45;;;;;;;0.20;0.20;;;;;;;18.30;62.44;99708.28;5073142;28;20043;-74
2023/10/26 03:19:10;;;;;;;0.10;0.10;;;;;;;17.52;65.68;99708.41;5073395;28;20446;-74
2023/10/26 03:21:36;;;;;;;0.20;0.20;;;;;;;18.49;62.54;99721.81;5073161;28;20043;-74
2023/10/26 03:24:01;;;;;;;0.10;0.10;;;;;;;18.23;62.60;99718.78;5073043;28;20056;-73
2023/10/26 03:26:26;;;;;;;0.10;0.10;;;;;;;18.25;62.61;99715.75;5073108;28;20035;-75
2023/10/26 03:28:52;;;;;;;0.10;0.10;;;;;;;18.21;63.10;99712.81;5072856;28;20495;-74
2023/10/26 03:31:18;;;;;;;0.20;0.20;;;;;;;17.62;65.32;99714.75;5073352;28;20040;-74
2023/10/26 03:33:43;;;;;;;0.10;0.10;;;;;;;18.18;62.60;99715.34;5072735;28;20032;-74
2023/10/26 03:36:13;;;;;;;0.15;0.15;;;;;;;18.38;62.75;99718.44;5072911;28;20476;-74
2023/10/26 03:38:39;;;;;;;0.30;0.30;;;;;;;17.80;64.19;99724.78;5072803;28;20050;-74
2023/10/26 03:41:04;;;;;;;0.25;0.25;;;;;;;18.04;63.60;99725.41;5072509;28;20438;-75
2023/10/26 03:43:29;;;;;;;0.20;0.20;;;;;;;18.14;63.06;99720.56;5072751;28;20016;-74
2023/10/26 03:45:55;;;;;;;0.20;0.20;;;;;;;18.34;63.03;99725.59;5080290;28;20035;-74
2023/10/26 03:48:20;;;;;;;0.20;0.20;;;;;;;18.29;62.54;99731.16;5083251;28;20045;-74
2023/10/26 03:50:46;;;;;;;0.10;0.10;;;;;;;17.97;63.90;99736.69;5072437;28;20407;-75
2023/10/26 03:53:11;;;;;;;0.10;0.10;;;;;;;17.80;64.56;99733.75;5071747;28;20040;-74
2023/10/26 03:55:36;;;;;;;0.10;0.10;;;;;;;17.94;64.30;99741.91;5072717;28;20472;-74
2023/10/26 03:58:02;;;;;;;0.15;0.15;;;;;;;18.33;62.57;99732.16;5072689;28;20050;-75
2023/10/26 04:00:27;;;;;;;0.30;0.30;;;;;;;18.52;61.18;99739.41;5072619;28;20110;-76
2023/10/26 04:02:52;;;;;;;0.20;0.20;;;;;;;18.58;61.54;99730.03;5063548;28;20033;-74
2023/10/26 04:05:18;;;;;;;0.20;0.20;;;;;;;18.51;61.39;99724.22;5055393;28;20499;-75
2023/10/26 04:07:43;;;;;;;0.25;0.25;;;;;;;18.30;61.90;99727.31;5060384;28;20062;-74
2023/10/26 04:10:09;;;;;;;0.30;0.30;;;;;;;18.04;62.66;99717.25;5065263;28;20495;-75
2023/10/26 04:12:34;;;;;;;0.10;0.10;;;;;;;18.38;61.16;99706.75;5065134;28;20032;-74
2023/10/26 04:15:00;;;;;;;0.28;0.28;;;;;;;17.98;62.40;99718.47;5072396;28;20079;-74
2023/10/26 04:17:26;;;;;;;0.10;0.10;;;;;;;17.78;63.63;99725.06;5071420;28;20043;-74
2023/10/26 04:19:51;;;;;;;0.20;0.20;;;;;;;18.07;61.89;99720.16;5071843;28;20459;-74
2023/10/26 04:22:16;;;;;;;0.30;0.30;;;;;;;18.01;62.44;99728.72;5072582;28;20074;-75
2023/10/26 04:24:42;;;;;;;0.20;0.20;;;;;;;18.19;61.00;99725.09;5072013;28;20388;-75
2023/10/26 04:27:07;;;;;;;0.15;0.15;;;;;;;18.38;59.84;99710.28;5071663;28;20407;-74
2023/10/26 04:29:33;;;;;;;0.10;0.10;;;;;;;18.44;59.38;99719.19;5071881;28;20388;-74
2023/10/26 04:31:58;;;;;;;0.20;0.20;;;;;;;18.28;59.77;99720.56;5071315;28;20396;-74
2023/10/26 04:34:23;;;;;;;0.20;0.20;;;;;;;18.29;59.06;99711.31;5072152;28;20028;-74
2023/10/26 04:36:49;;;;;;;0.25;0.25;;;;;;;18.27;59.17;99711.63;5069178;28;20134;-73
2023/10/26 04:39:15;;;;;;;0.20;0.20;;;;;;;18.17;59.25;99711.00;5071727;28;20123;-75
2023/10/26 04:41:41;;;;;;;0.10;0.10;;;;;;;18.16;58.76;99702.03;5074206;28;20161;-74
2023/10/26 04:44:06;;;;;;;0.20;0.20;;;;;;;18.14;59.08;99704.25;5085157;28;20139;-73
2023/10/26 04:46:32;;;;;;;0.30;0.30;;;;;;;18.03;58.92;99702.84;5060243;28;20033;-74
2023/10/26 04:48:57;;;;;;;0.10;0.10;;;;;;;18.00;59.20;99702.66;5071495;28;20025;-75
2023/10/26 04:51:23;;;;;;;0.20;0.20;;;;;;;17.90;59.54;99706.38;5071077;28;20055;-74
2023/10/26 04:53:49;;;;;;;0.20;0.20;;;;;;;17.88;59.31;99702.34;5071200;28;20041;-74
2023/10/26 04:56:14;;;;;;;0.20;0.20;;;;;;;17.63;59.95;99700.88;5053060;28;20397;-74
2023/10/26 04:58:39;;;;;;;0.20;0.20;;;;;;;17.78;59.85;99697.91;5070195;28;20686;-74
2023/10/26 05:01:05;;;;;;;0.20;0.20;;;;;;;17.65;59.53;99695.94;5071253;28;20043;-74
2023/10/26 05:03:31;;;;;;;0.28;0.28;;;;;;;17.58;59.54;99690.13;5070677;28;20468;-73
2023/10/26 05:05:56;;;;;;;0.22;0.22;;;;;;;17.73;59.24;99689.03;5070400;28;20136;-74
2023/10/26 05:08:22;;;;;;;0.10;0.10;;;;;;;17.54;59.14;99694.53;5070870;28;20404;-75
2023/10/26 05:10:47;;;;;;;0.20;0.20;;;;;;;17.63;59.02;99697.38;5070155;28;20047;-75
2023/10/26 05:13:13;;;;;;;0.10;0.10;;;;;;;17.56;58.94;99697.75;5071263;28;20033;-74
2023/10/26 05:15:38;;;;;;;0.10;0.10;;;;;;;17.56;58.87;99700.47;5070566;28;20482;-76
2023/10/26 05:18:03;;;;;;;0.30;0.30;;;;;;;17.45;59.09;99702.50;5070556;28;20037;-74
2023/10/26 05:20:30;;;;;;;0.25;0.25;;;;;;;17.40;59.04;99702.63;5070958;28;20044;-74
2023/10/26 05:22:56;;;;;;;0.17;0.17;;;;;;;17.26;59.71;99692.81;5070701;28;20060;-74
2023/10/26 05:25:21;;;;;;;0.30;0.30;;;;;;;17.37;58.95;99692.34;5052390;28;20079;-75
2023/10/26 05:27:47;;;;;;;0.20;0.20;;;;;;;17.33;58.70;99699.50;5071436;28;20032;-74
2023/10/26 05:30:12;;;;;;;0.30;0.30;;;;;;;17.37;59.00;99697.78;5070743;28;20473;-74
2023/10/26 05:32:39;;;;;;;0.20;0.20;;;;;;;17.24;58.66;99695.00;5064259;28;20048;-74
2023/10/26 05:35:05;;;;;;;0.25;0.25;;;;;;;17.16;59.01;99698.41;5034737;28;20036;-74
2023/10/26 05:37:31;;;;;;;0.20;0.20;;;;;;;17.33;58.73;99704.09;5050342;28;20115;-74
2023/10/26 05:39:56;;;;;;;0.20;0.20;;;;;;;17.40;58.67;99702.63;5088828;28;20084;-75
2023/10/26 05:42:21;;;;;;;0.25;0.25;;;;;;;17.31;59.23;99696.25;5070773;28;20048;-74
2023/10/26 05:44:47;;;;;;;0.20;0.20;;;;;;;17.19;59.77;99695.09;5070415;28;20044;-74
2023/10/26 05:47:12;;;;;;;0.30;0.30;;;;;;;17.20;59.36;99691.28;5070288;28;20044;-74
2023/10/26 05:49:38;;;;;;;0.22;0.22;;;;;;;17.15;59.52;99688.66;5070216;28;20052;-73
2023/10/26 05:52:03;;;;;;;0.20;0.20;;;;;;;17.20;58.81;99683.13;5071163;28;20028;-74
2023/10/26 05:54:29;;;;;;;0.20;0.20;;;;;;;17.16;59.30;99685.63;5070159;28;20400;-75
2023/10/26 05:56:55;;;;;;;0.40;0.40;;;;;;;16.96;60.19;99687.88;5071080;28;20488;-74
2023/10/26 05:59:20;;;;;;;0.40;0.40;;;;;;;17.12;59.15;99681.13;5070423;28;20032;-74
2023/10/26 06:01:46;;;;;;;0.20;0.20;;;;;;;17.08;59.14;99678.16;5070427;28;20485;-74
2023/10/26 06:04:11;;;;;;;0.40;0.40;;;;;;;17.02;59.29;99683.97;5070704;28;20032;-73
2023/10/26 06:06:37;;;;;;;0.28;0.28;;;;;;;16.92;59.40;99681.41;5070384;28;20542;-73
2023/10/26 06:09:03;;;;;;;0.40;0.40;;;;;;;16.92;59.33;99681.41;5070075;28;20036;-74
2023/10/26 06:11:28;;;;;;;0.30;0.30;;;;;;;17.02;59.00;99690.19;5073806;28;20039;-74
2023/10/26 06:13:54;;;;;;;0.20;0.20;;;;;;;17.05;59.38;99686.09;5073776;28;20161;-74
2023/10/26 06:16:20;;;;;;;0.20;0.20;;;;;;;16.97;59.94;99681.34;5074229;28;20389;-73
2023/10/26 06:18:45;;;;;;;0.20;0.20;;;;;;;17.04;59.50;99684.50;5073916;28;20056;-74
2023/10/26 06:21:13;;;;;;;0.20;0.20;;;;;;;17.02;59.72;99687.47;5073449;28;20123;-73
2023/10/26 06:23:38;;;;;;;0.20;0.20;;;;;;;17.10;59.56;99680.59;5074049;28;20517;-75
2023/10/26 06:26:04;;;;;;;0.40;0.40;;;;;;;17.15;59.26;99689.47;5073763;28;20087;-73
2023/10/26 06:28:29;;;;;;;0.30;0.30;;;;;;;17.10;59.28;99686.03;5073979;28;20403;-73
2023/10/26 06:30:55;;;;;;;0.30;0.30;;;;;;;17.08;59.66;99685.53;5074221;28;20081;-74
2023/10/26 06:33:21;;;;;;;0.20;0.20;;;;;;;17.35;58.94;99686.41;5073786;28;20037;-73
2023/10/26 06:35:48;;;;;;;0.30;0.30;;;;;;;16.98;59.96;99694.59;5073393;28;20500;-72
2023/10/26 06:38:13;;;;;;;0.20;0.20;;;;;;;16.88;60.37;99688.53;5073401;28;20039;-74
2023/10/26 06:40:39;;;;;;;0.20;0.20;;;;;;;17.32;59.44;99694.34;5073494;28;20590;-74
2023/10/26 06:43:04;;;;;;;0.20;0.20;;;;;;;17.39;58.82;99697.50;5074369;28;20529;-74
2023/10/26 06:45:30;;;;;;;0.20;0.20;;;;;;;17.17;59.08;99695.41;5073495;28;20050;-75
2023/10/26 06:47:55;;;;;;;0.20;0.20;;;;;;;17.43;58.34;99698.50;5073368;28;20119;-74
2023/10/26 06:50:22;;;;;;;0.10;0.10;;;;;;;17.27;59.00;99702.56;5073736;28;20074;-74
2023/10/26 06:52:48;;;;;;;0.30;0.30;;;;;;;17.11;59.14;99703.91;5073119;28;20048;-74
2023/10/26 06:55:16;;;;;;;0.35;0.35;;;;;;;16.84;60.46;99704.59;5073949;28;20055;-74
2023/10/26 06:57:42;;;;;;;0.28;0.28;;;;;;;17.21;59.73;99701.03;5073000;28;20554;-74
2023/10/26 07:00:08;;;;;;;0.20;0.20;;;;;;;17.25;58.99;99699.34;5073246;28;20078;-74
2023/10/26 07:02:34;;;;;;;0.30;0.30;;;;;;;17.06;60.17;99701.28;5073175;28;20043;-74
2023/10/26 07:04:59;;;;;;;0.50;0.50;;;;;;;16.94;60.40;99704.47;5073203;28;20055;-74
2023/10/26 07:07:25;;;;;;;0.30;0.30;;;;;;;16.96;60.99;99696.81;5072910;28;20090;-73
2023/10/26 07:09:51;;;;;;;0.20;0.20;;;;;;;17.08;60.51;99699.88;5073587;28;20104;-75
2023/10/26 07:12:17;;;;;;;0.20;0.20;;;;;;;17.09;60.98;99693.34;5072995;28;20040;-74
2023/10/26 07:14:43;;;;;;;0.20;0.20;;;;;;;16.64;62.99;99696.75;5073096;28;20044;-73
2023/10/26 07:17:08;;;;;;;0.20;0.20;;;;;;;17.11;61.31;99698.50;5072815;28;20041;-74
2023/10/26 07:19:34;;;;;;;0.30;0.30;;;;;;;17.22;61.32;99689.88;5072811;28;20068;-74
2023/10/26 07:21:59;;;;;;;0.20;0.20;;;;;;;17.43;60.57;99693.84;5072248;28;20075;-74
2023/10/26 07:24:24;;;;;;;0.20;0.20;;;;;;;17.39;60.80;99695.56;5054617;28;20071;-74
2023/10/26 07:26:51;;;;;;;0.40;0.40;;;;;;;17.50;60.48;99697.03;5072852;28;20124;-74
2023/10/26 07:29:16;;;;;;;0.30;0.30;;;;;;;17.45;61.01;99707.94;5072671;28;20167;-74
2023/10/26 07:31:42;;;;;;;0.30;0.30;;;;;;;17.60;60.73;99700.66;5086233;28;20118;-74
2023/10/26 07:34:07;;;;;;;0.30;0.30;;;;;;;17.62;60.79;99703.91;5077543;28;20073;-74
2023/10/26 07:36:32;;;;;;;0.40;0.40;;;;;;;17.79;59.80;99702.22;5072812;28;20151;-74
2023/10/26 07:39:00;;;;;;;0.30;0.30;;;;;;;17.72;60.03;99698.28;5072351;28;20096;-74
2023/10/26 07:41:26;;;;;;;0.13;0.13;;;;;;;17.76;59.80;99696.59;5072583;28;20024;-74
2023/10/26 07:43:51;;;;;;;0.20;0.20;;;;;;;17.93;59.32;99703.03;5072475;28;20031;-75
2023/10/26 07:46:17;;;;;;;0.20;0.20;;;;;;;17.33;61.60;99709.53;5072848;28;20480;-72
2023/10/26 07:48:42;;;;;;;0.25;0.25;;;;;;;17.91;60.33;99704.44;5072316;28;20036;-75
2023/10/26 07:51:07;;;;;;;0.25;0.25;;;;;;;18.09;59.57;99703.56;5072464;28;20063;-74
2023/10/26 07:53:33;;;;;;;0.25;0.25;;;;;;;17.43;61.58;99714.81;5072084;28;20093;-74
2023/10/26 07:55:59;;;;;;;0.35;0.30;;;;;;;17.70;60.78;99706.75;5072145;28;20047;-75
2023/10/26 07:58:26;;;;;;;0.10;0.10;;;;;;;17.99;60.52;99723.59;5072005;28;20025;-73
2023/10/26 08:00:52;;;;;;;0.40;0.40;;;;;;;17.91;60.04;99707.16;5072196;28;20033;-75
2023/10/26 08:03:17;;;;;;;0.20;0.20;;;;;;;18.03;59.85;99702.03;5072293;28;20090;-73
2023/10/26 08:05:43;;;;;;;0.32;0.32;;;;;;;17.34;62.86;99713.84;5071475;28;20044;-74
2023/10/26 08:08:09;;;;;;;0.15;0.15;;;;;;;17.33;61.96;99723.13;5071972;28;20399;-73
2023/10/26 08:10:37;;;;;;;0.25;0.25;;;;;;;17.70;60.55;99725.75;5071645;28;20074;-72
2023/10/26 08:13:03;;;;;;;0.20;0.20;;;;;;;17.93;60.66;99729.41;5072108;28;20059;-74
2023/10/26 08:15:28;;;;;;;0.20;0.20;;;;;;;17.88;59.72;99727.63;5071516;28;20044;-73
2023/10/26 08:17:54;;;;;;;0.20;0.20;;;;;;;18.11;60.11;99726.63;5071751;28;20196;-73
2023/10/26 08:20:19;;;;;;;0.20;0.20;;;;;;;18.15;59.81;99732.25;5071149;28;20556;-74
2023/10/26 08:22:45;;;;;;;0.38;0.38;;;;;;;18.32;58.89;99732.44;5071588;28;20041;-72
2023/10/26 08:25:11;;;;;;;0.20;0.20;;;;;;;18.32;59.68;99732.44;5071754;28;20027;-73
2023/10/26 08:27:36;;;;;;;0.20;0.20;;;;;;;18.16;60.86;99731.94;5071482;28;20166;-73
2023/10/26 08:30:03;;;;;;;0.10;0.10;;;;;;;18.50;59.78;99723.41;5071531;28;20495;-73
2023/10/26 08:32:29;;;;;;;0.20;0.20;;;;;;;18.17;60.58;99719.16;5070968;28;20033;-73
2023/10/26 08:34:55;;;;;;;0.20;0.20;;;;;;;18.28;60.26;99715.94;5071002;28;20044;-74
2023/10/26 08:37:20;;;;;;;0.20;0.20;;;;;;;18.18;60.87;99713.41;5070556;28;20025;-72
2023/10/26 08:39:45;;;;;;;0.20;0.20;;;;;;;18.48;59.98;99725.63;5070918;28;20077;-74
2023/10/26 08:42:11;;;;;;;0.10;0.10;;;;;;;18.30;61.03;99734.66;5070661;28;20040;-73
2023/10/26 08:44:37;;;;;;;0.20;0.20;;;;;;;18.52;60.66;99750.31;5070647;28;20040;-73
2023/10/26 08:47:04;;;;;;;0.30;0.30;;;;;;;18.74;59.70;99743.03;5071903;28;20036;-74
2023/10/26 08:49:30;;;;;;;0.15;0.15;;;;;;;18.69;60.33;99740.41;5070183;28;20043;-72
2023/10/26 08:51:57;;;;;;;0.20;0.20;;;;;;;18.98;59.44;99750.94;5052696;28;20036;-73
2023/10/26 08:54:22;;;;;;;0.30;0.30;;;;;;;18.73;60.16;99741.41;5070690;28;20040;-74
2023/10/26 08:56:47;;;;;;;0.10;0.10;;;;;;;19.17;59.65;99748.84;5070674;28;20392;-73
2023/10/26 08:59:13;;;;;;;0.10;0.10;;;;;;;18.86;60.61;99747.94;5070543;28;20040;-74
2023/10/26 09:01:38;;;;;;;0.28;0.28;;;;;;;19.16;59.89;99747.25;5070687;28;20050;-74
2023/10/26 09:04:11;;;;;;;0.20;0.20;;;;;;;18.95;60.61;99746.91;5071196;28;20023;-73
2023/10/26 09:06:47;;;;;;;0.20;0.20;;;;;;;18.52;61.91;99756.56;5070496;28;20035;-74
2023/10/26 09:09:15;;;;;;;0.20;0.20;;;;;;;18.44;62.59;99759.97;5070487;28;20029;-74
2023/10/26 09:11:40;;;;;;;0.28;0.28;;;;;;;19.07;60.85;99760.78;5070688;28;20040;-73
2023/10/26 09:14:20;;;;;;;0.30;0.30;;;;;;;19.36;59.41;99759.63;5070624;28;20495;-73
2023/10/26 09:16:46;;;;;;;0.30;0.30;;;;;;;19.46;59.16;99751.22;5069976;28;20032;-74
2023/10/26 09:19:14;;;;;;;0.10;0.10;;;;;;;19.31;59.39;99757.78;5067502;28;20501;-74
2023/10/26 09:21:57;;;;;;;0.20;0.20;;;;;;;19.52;58.79;99753.47;5069936;28;20029;-74
2023/10/26 09:24:27;;;;;;;0.10;0.10;;;;;;;19.23;60.22;99745.72;5073809;28;20041;-75
2023/10/26 09:26:54;;;;;;;0.30;0.30;;;;;;;18.24;62.94;99742.13;5070436;28;20113;-74
2023/10/26 09:29:40;;;;;;;0.22;0.22;;;;;;;19.18;60.38;99737.66;5070414;28;20029;-74
2023/10/26 09:32:06;;;;;;;0.20;0.20;;;;;;;19.45;59.03;99741.41;5069729;28;20046;-74
2023/10/26 09:34:41;;;;;;;0.10;0.10;;;;;;;19.17;60.54;99746.13;5070293;28;20027;-74
2023/10/26 09:37:10;;;;;;;0.20;0.20;;;;;;;18.56;61.46;99752.13;5070861;28;20032;-74
2023/10/26 09:39:38;;;;;;;0.10;0.10;;;;;;;18.67;62.68;99750.00;5070349;28;20036;-74
2023/10/26 09:42:05;;;;;;;0.20;0.20;;;;;;;18.93;61.32;99756.47;5070291;28;20396;-74
2023/10/26 09:44:32;;;;;;;0.30;0.30;;;;;;;19.22;60.02;99746.81;5069939;28;20036;-74
2023/10/26 09:46:58;;;;;;;0.20;0.20;;;;;;;19.75;58.89;99749.63;5070085;28;20032;-73
2023/10/26 09:49:25;;;;;;;0.10;0.10;;;;;;;19.81;58.54;99742.13;5070218;28;20035;-74
2023/10/26 09:51:52;;;;;;;0.20;0.20;;;;;;;19.32;59.18;99740.31;5070860;28;20025;-74
2023/10/26 09:54:24;;;;;;;0.10;0.10;;;;;;;19.13;60.42;99742.41;5070283;28;20040;-73
2023/10/26 09:56:56;;;;;;;0.10;0.10;;;;;;;19.45;59.39;99741.41;5070175;28;20056;-73
2023/10/26 09:59:23;;;;;;;0.10;0.10;;;;;;;19.53;59.59;99738.75;5069974;28;20067;-73
2023/10/26 10:01:48;;;;;;;0.20;0.20;;;;;;;19.67;58.66;99744.94;5070091;28;20040;-73
2023/10/26 10:04:14;;;;;;;0.17;0.17;;;;;;;18.68;61.81;99751.59;5070641;28;20035;-73
2023/10/26 10:06:50;;;;;;;0.20;0.20;;;;;;;19.51;60.32;99740.97;5070173;28;20078;-73
2023/10/26 10:09:25;;;;;;;0.10;0.10;;;;;;;19.81;58.96;99742.13;5070026;28;20414;-75
2023/10/26 10:12:06;;;;;;;0.15;0.15;;;;;;;19.97;57.87;99741.41;5051677;28;20047;-73
2023/10/26 10:14:46;;;;;;;0.20;0.20;;;;;;;20.40;57.77;99727.16;5070048;28;20043;-73
2023/10/26 10:17:12;;;;;;;0.17;0.17;;;;;;;20.55;57.14;99724.00;5070005;28;20109;-73
2023/10/26 10:19:40;;;;;;;0.20;0.20;;;;;;;20.54;57.22;99725.91;5058562;28;20036;-73
2023/10/26 10:22:34;;;;;;;0.10;0.10;;;;;;;20.79;56.97;99727.91;5063712;28;20027;-77
2023/10/26 10:25:00;;;;;;;0.10;0.10;;;;;;;20.64;56.52;99720.16;5069975;28;20635;-73
2023/10/26 10:27:26;;;;;;;0.20;0.20;;;;;;;20.83;56.75;99725.31;5069953;28;20045;-71
2023/10/26 10:30:02;;;;;;;0.10;0.10;;;;;;;20.88;57.46;99733.34;5069708;28;20082;-71
2023/10/26 10:32:53;;;;;;;0.17;0.17;;;;;;;19.67;60.30;99730.50;5069262;28;20036;-72
2023/10/26 10:35:21;;;;;;;0.20;0.20;;;;;;;20.50;57.91;99730.38;5069615;28;20522;-72
2023/10/26 10:38:11;;;;;;;0.20;0.20;;;;;;;20.42;57.42;99722.19;5069761;28;20043;-72
2023/10/26 10:40:38;;;;;;;0.20;0.20;;;;;;;20.39;57.11;99717.34;5069427;28;20515;-71
2023/10/26 10:43:04;;;;;;;0.10;0.10;;;;;;;20.00;58.12;99731.78;5070026;28;20116;-72
2023/10/26 10:45:30;;;;;;;0.10;0.10;;;;;;;19.85;59.32;99734.94;5069664;28;20147;-71
2023/10/26 10:47:55;;;;;;;0.10;0.10;;;;;;;20.58;57.15;99726.09;5069469;28;20079;-71
2023/10/26 10:50:22;;;;;;;0.13;0.13;;;;;;;20.64;55.88;99733.78;5069430;28;20044;-71
2023/10/26 10:52:50;;;;;;;0.10;0.10;;;;;;;20.92;56.38;99740.59;5069635;28;20067;-70
2023/10/26 10:55:25;;;;;;;0.20;0.20;;;;;;;21.00;55.76;99731.59;5069922;28;20034;-70
2023/10/26 10:57:59;;;;;;;0.20;0.20;;;;;;;20.47;56.42;99733.75;5049902;28;20070;-70
2023/10/26 11:00:27;;;;;;;0.10;0.10;;;;;;;19.97;57.23;99725.03;5053495;28;20079;-69
2023/10/26 11:02:56;;;;;;;0.10;0.10;;;;;;;20.11;56.78;99728.47;5053516;28;20044;-71
2023/10/26 11:05:39;;;;;;;0.20;0.20;;;;;;;19.23;58.78;99723.94;5053295;28;20504;-70
2023/10/26 11:08:06;;;;;;;0.20;0.20;;;;;;;18.89;60.69;99725.53;5052939;28;20040;-69
2023/10/26 11:10:31;;;;;;;0.15;0.15;;;;;;;19.83;57.63;99718.09;5053120;28;20079;-70
2023/10/26 11:12:57;;;;;;;0.17;0.17;;;;;;;18.90;59.99;99719.00;5053333;28;20450;-70
2023/10/26 11:15:36;;;;;;;0.10;0.10;;;;;;;18.95;60.00;99721.59;5058581;28;20032;-69
2023/10/26 11:18:04;;;;;;;0.20;0.20;;;;;;;18.98;59.84;99727.25;5086545;28;20041;-72
2023/10/26 11:20:34;;;;;;;0.30;0.30;;;;;;;19.13;59.23;99724.16;5072617;28;20041;-69
2023/10/26 11:23:00;;;;;;;;;;;;;;;20.12;55.79;99719.19;5073306;28;20036;-69
2023/10/26 11:25:26;;;;;;;0.25;0.25;;;;;;;20.11;55.95;99716.75;5072695;28;19912;-68
2023/10/26 11:27:51;;;;;;;0.20;0.20;;;;;;;19.78;57.05;99710.84;5073466;28;20043;-70
2023/10/26 11:30:17;;;;;;;0.20;0.20;;;;;;;20.03;56.69;99701.97;5072661;28;20044;-70
2023/10/26 11:32:42;;;;;;;0.20;0.20;;;;;;;20.60;55.57;99702.00;5072587;28;20037;-70